createdAt,value
2022-12-12T00:03:20.215Z,3.80
2022-12-12T00:07:23.848Z,3.90
2022-12-12T00:11:27.740Z,3.80
2022-12-12T00:15:30.745Z,3.47
2022-12-12T00:19:35.356Z,4.03
2022-12-12T00:23:38.404Z,3.40
2022-12-12T00:27:41.428Z,3.93
2022-12-12T00:31:44.414Z,3.50
2022-12-12T00:35:51.249Z,3.80
2022-12-12T00:39:54.237Z,3.70
2022-12-12T00:43:57.358Z,3.37
2022-12-12T00:48:00.547Z,3.87
2022-12-12T00:52:05.716Z,3.70
2022-12-12T00:56:08.764Z,3.23
2022-12-12T01:00:15.425Z,3.27
2022-12-12T01:04:18.474Z,3.93
2022-12-12T01:08:22.956Z,4.00
2022-12-12T01:12:26.078Z,3.83
2022-12-12T01:16:30.145Z,4.00
2022-12-12T01:20:33.326Z,3.80
2022-12-12T01:24:37.789Z,4.23
2022-12-12T01:28:41.191Z,3.10
2022-12-12T01:32:44.221Z,3.53
2022-12-12T01:36:47.280Z,3.70
2022-12-12T01:40:51.799Z,3.33
2022-12-12T01:44:54.926Z,3.70
2022-12-12T01:49:02.809Z,3.90
2022-12-12T01:53:06.108Z,3.83
2022-12-12T01:57:16.760Z,3.90
2022-12-12T02:01:21.617Z,3.87
2022-12-12T02:05:30.054Z,4.10
2022-12-12T02:09:33.928Z,4.23
2022-12-12T02:13:38.484Z,4.37
2022-12-12T02:18:03.508Z,5.07
2022-12-12T02:22:18.936Z,4.63
2022-12-12T02:27:02.503Z,4.87
2022-12-12T02:31:17.155Z,4.40
2022-12-12T02:35:24.809Z,5.10
2022-12-12T02:39:36.303Z,4.73
2022-12-12T02:43:44.948Z,4.90
2022-12-12T02:47:54.645Z,5.13
2022-12-12T02:51:59.027Z,4.27
2022-12-12T02:56:04.150Z,4.70
2022-12-12T03:00:10.989Z,4.60
2022-12-12T03:04:44.708Z,4.27
2022-12-12T03:09:00.257Z,4.67
2022-12-12T03:13:11.914Z,4.80
2022-12-12T03:17:23.298Z,4.50
2022-12-12T03:21:34.367Z,4.83
2022-12-12T03:25:43.297Z,4.90
2022-12-12T03:29:52.174Z,4.50
2022-12-12T03:33:58.899Z,4.13
2022-12-12T03:38:07.867Z,5.00
2022-12-12T03:42:16.847Z,4.10
2022-12-12T03:46:24.841Z,4.70
2022-12-12T03:50:31.521Z,4.40
2022-12-12T03:54:42.638Z,4.33
2022-12-12T03:58:51.890Z,4.27
2022-12-12T04:02:59.744Z,4.60
2022-12-12T04:07:08.088Z,4.03
2022-12-12T04:11:38.607Z,4.17
2022-12-12T04:16:03.175Z,4.00
2022-12-12T04:20:32.944Z,4.30
2022-12-12T04:24:43.684Z,4.23
2022-12-12T04:28:57.013Z,4.13
2022-12-12T04:33:06.842Z,4.23
2022-12-12T04:37:13.595Z,4.23
2022-12-12T04:41:18.434Z,3.93
2022-12-12T04:45:28.634Z,3.67
2022-12-12T04:49:34.798Z,3.93
2022-12-12T04:53:42.905Z,3.93
2022-12-12T04:57:49.352Z,3.60
2022-12-12T05:01:59.935Z,3.57
2022-12-12T05:06:07.823Z,3.30
2022-12-12T05:10:15.526Z,3.83
2022-12-12T05:14:19.192Z,4.40
2022-12-12T05:18:24.406Z,3.93
2022-12-12T05:22:27.834Z,4.03
2022-12-12T05:26:33.130Z,3.87
2022-12-12T05:30:36.520Z,3.93
2022-12-12T05:34:40.933Z,4.10
2022-12-12T05:38:44.661Z,4.20
2022-12-12T05:42:48.327Z,4.97
2022-12-12T05:46:51.398Z,4.63
2022-12-12T05:50:56.362Z,4.30
2022-12-12T05:54:59.627Z,4.27
2022-12-12T05:59:02.846Z,4.80
2022-12-12T06:03:06.171Z,5.03
2022-12-12T06:07:11.015Z,4.47
2022-12-12T06:11:14.341Z,4.47
2022-12-12T06:15:17.534Z,3.80
2022-12-12T06:19:21.288Z,4.10
2022-12-12T06:23:25.839Z,4.70
2022-12-12T06:27:29.260Z,3.87
2022-12-12T06:31:32.694Z,4.50
2022-12-12T06:35:36.061Z,3.97
2022-12-12T06:39:40.475Z,4.10
2022-12-12T06:43:44.108Z,3.70
2022-12-12T06:47:47.130Z,3.40
2022-12-12T06:51:50.394Z,3.97
2022-12-12T06:55:54.795Z,3.53
2022-12-12T06:59:57.815Z,3.73
2022-12-12T07:04:00.976Z,3.63
2022-12-12T07:08:04.660Z,3.50
2022-12-12T07:12:09.323Z,3.50
2022-12-12T07:16:12.534Z,3.40
2022-12-12T07:20:15.635Z,3.57
2022-12-12T07:24:19.111Z,3.40
2022-12-12T07:28:23.556Z,2.83
2022-12-12T07:32:26.617Z,3.27
2022-12-12T07:36:29.703Z,3.43
2022-12-12T07:40:33.673Z,3.50
2022-12-12T07:44:38.242Z,3.70
2022-12-12T07:48:41.335Z,3.57
2022-12-12T07:52:44.901Z,3.17
2022-12-12T07:56:48.515Z,3.97
2022-12-12T08:01:15.649Z,3.30
2022-12-12T08:05:19.015Z,2.90
2022-12-12T08:09:22.080Z,3.40
2022-12-12T08:13:25.082Z,3.50
2022-12-12T08:17:29.757Z,3.43
2022-12-12T08:21:32.900Z,3.37
2022-12-12T08:25:36.673Z,3.53
2022-12-12T08:29:39.851Z,3.63
2022-12-12T08:33:44.300Z,3.33
2022-12-12T08:37:47.963Z,3.27
2022-12-12T08:41:51.378Z,3.10
2022-12-12T08:46:00.685Z,2.97
2022-12-12T08:50:06.002Z,3.10
2022-12-12T08:54:09.706Z,2.90
2022-12-12T08:58:12.814Z,3.13
2022-12-12T09:02:16.012Z,3.10
2022-12-12T09:06:21.627Z,2.70
2022-12-12T09:10:24.770Z,2.57
2022-12-12T09:14:28.193Z,3.23
2022-12-12T09:18:31.659Z,2.77
2022-12-12T09:22:36.449Z,3.00
2022-12-12T09:26:39.800Z,3.50
2022-12-12T09:30:43.841Z,3.23
2022-12-12T09:34:46.876Z,3.10
2022-12-12T09:38:51.291Z,3.43
2022-12-12T09:42:54.592Z,3.33
2022-12-12T09:47:00.454Z,3.40
2022-12-12T09:51:03.505Z,3.47
2022-12-12T09:55:27.685Z,3.70
2022-12-12T09:59:38.966Z,4.10
2022-12-12T10:03:55.154Z,4.17
2022-12-12T10:08:05.960Z,4.50
2022-12-12T10:12:17.197Z,4.00
2022-12-12T10:16:21.491Z,3.80
2022-12-12T10:20:28.756Z,4.30
2022-12-12T10:24:37.181Z,4.37
2022-12-12T10:28:41.787Z,4.43
2022-12-12T10:32:57.250Z,4.47
2022-12-12T10:37:11.937Z,4.80
2022-12-12T10:41:22.272Z,4.50
2022-12-12T10:45:43.572Z,4.03
2022-12-12T10:49:46.720Z,3.63
2022-12-12T10:53:49.807Z,3.53
2022-12-12T10:58:03.673Z,3.47
2022-12-12T11:02:26.166Z,3.00
2022-12-12T11:06:32.086Z,3.20
2022-12-12T11:10:37.148Z,2.73
2022-12-12T11:14:45.615Z,2.37
2022-12-12T11:19:01.799Z,2.40
2022-12-12T11:23:04.832Z,2.10
2022-12-12T11:27:08.703Z,2.07
2022-12-12T11:31:16.834Z,2.37
2022-12-12T11:35:27.280Z,2.77
2022-12-12T11:39:33.804Z,3.47
2022-12-12T11:43:38.956Z,3.20
2022-12-12T11:47:44.514Z,3.50
2022-12-12T11:51:49.269Z,3.90
2022-12-12T11:56:06.500Z,3.50
2022-12-12T12:00:15.472Z,4.10
2022-12-12T12:04:31.279Z,4.27
2022-12-12T12:08:53.836Z,3.43
2022-12-12T12:13:05.425Z,4.53
2022-12-12T12:17:18.078Z,4.70
2022-12-12T12:21:28.857Z,4.07
2022-12-12T12:25:42.045Z,4.30
2022-12-12T12:30:07.932Z,4.23
2022-12-12T12:34:21.807Z,4.40
2022-12-12T12:38:29.202Z,4.70
2022-12-12T12:42:59.218Z,4.40
2022-12-12T12:47:10.408Z,4.17
2022-12-12T12:51:20.002Z,4.63
2022-12-12T12:55:28.062Z,4.17
2022-12-12T12:59:36.459Z,4.97
2022-12-12T13:03:45.750Z,4.50
2022-12-12T13:07:53.525Z,4.80
2022-12-12T13:12:01.570Z,5.43
2022-12-12T13:16:10.268Z,5.40
2022-12-12T13:20:18.105Z,5.37
2022-12-12T13:24:29.206Z,5.13
2022-12-12T13:28:37.782Z,4.27
2022-12-12T13:33:13.074Z,4.73
2022-12-12T13:37:18.840Z,4.83
2022-12-12T13:41:22.321Z,5.30
2022-12-12T13:45:39.032Z,5.20
2022-12-12T13:49:51.639Z,4.80
2022-12-12T13:54:27.745Z,4.53
2022-12-12T13:58:35.361Z,4.13
2022-12-12T14:02:42.228Z,4.03
2022-12-12T14:06:46.739Z,4.00
2022-12-12T14:10:57.139Z,4.20
2022-12-12T14:15:04.104Z,4.23
2022-12-12T14:19:19.394Z,4.30
2022-12-12T14:23:33.582Z,3.83
2022-12-12T14:28:03.347Z,4.07
2022-12-12T14:32:27.482Z,4.50
2022-12-12T14:36:57.720Z,3.73
2022-12-12T14:41:05.870Z,4.33
2022-12-12T14:45:31.549Z,4.20
2022-12-12T14:49:34.850Z,4.00
2022-12-12T14:53:47.510Z,4.00
2022-12-12T14:57:52.383Z,4.33
2022-12-12T15:01:58.192Z,4.30
2022-12-12T15:06:21.376Z,4.10
2022-12-12T15:10:26.846Z,4.50
2022-12-12T15:14:31.299Z,4.50
2022-12-12T15:18:34.465Z,5.03
2022-12-12T15:22:40.113Z,5.27
2022-12-12T15:26:46.346Z,5.63
2022-12-12T15:30:53.791Z,5.40
2022-12-12T15:35:03.605Z,5.77
2022-12-12T15:39:16.402Z,4.87
2022-12-12T15:43:23.353Z,5.27
2022-12-12T15:47:27.977Z,5.17
2022-12-12T15:51:33.170Z,4.73
2022-12-12T15:55:36.946Z,5.47
2022-12-12T15:59:40.334Z,4.73
2022-12-12T16:03:55.732Z,5.37
2022-12-12T16:08:32.213Z,5.37
2022-12-12T16:13:01.205Z,5.07
2022-12-12T16:17:06.509Z,5.77
2022-12-12T16:21:11.262Z,5.50
2022-12-12T16:25:19.260Z,5.60
2022-12-12T16:29:22.293Z,5.60
2022-12-12T16:33:32.048Z,5.60
2022-12-12T16:37:36.536Z,5.60
2022-12-12T16:41:41.124Z,5.53
2022-12-12T16:45:44.665Z,5.20
2022-12-12T16:49:48.260Z,5.20
2022-12-12T16:53:52.866Z,5.17
2022-12-12T16:57:55.953Z,5.70
2022-12-12T17:01:59.000Z,5.17
2022-12-12T17:06:02.637Z,5.47
2022-12-12T17:10:08.231Z,5.27
2022-12-12T17:14:17.554Z,5.17
2022-12-12T17:18:21.165Z,4.87
2022-12-12T17:22:24.267Z,4.97
2022-12-12T17:26:28.752Z,5.03
2022-12-12T17:30:31.986Z,5.30
2022-12-12T17:34:35.235Z,4.73
2022-12-12T17:38:38.596Z,4.73
2022-12-12T17:42:43.009Z,4.70
2022-12-12T17:46:46.037Z,4.87
2022-12-12T17:50:57.382Z,4.90
2022-12-12T17:55:53.473Z,4.83
2022-12-12T17:59:25.713Z,4.60
2022-12-12T18:03:30.997Z,4.60
2022-12-12T18:07:34.029Z,4.13
2022-12-12T18:11:38.720Z,4.70
2022-12-12T18:15:44.485Z,4.53
2022-12-12T18:19:47.738Z,4.27
2022-12-12T18:23:50.928Z,4.17
2022-12-12T18:27:54.361Z,4.30
2022-12-12T18:31:58.880Z,3.83
2022-12-12T18:36:03.798Z,3.87
2022-12-12T18:40:08.844Z,4.40
2022-12-12T18:44:14.442Z,4.10
2022-12-12T18:48:18.958Z,4.40
2022-12-12T18:52:22.647Z,3.90
2022-12-12T18:56:27.329Z,4.07
2022-12-12T19:00:30.327Z,3.80
2022-12-12T19:04:35.456Z,4.10
2022-12-12T19:08:39.084Z,4.30
2022-12-12T19:12:42.161Z,4.00
2022-12-12T19:16:45.869Z,4.30
2022-12-12T19:20:53.660Z,3.83
2022-12-12T19:24:56.704Z,4.47
2022-12-12T19:29:01.889Z,4.10
2022-12-12T19:33:05.019Z,3.80
2022-12-12T19:37:09.571Z,4.20
2022-12-12T19:41:15.061Z,4.40
2022-12-12T19:45:18.335Z,3.70
2022-12-12T19:49:21.779Z,4.40
2022-12-12T19:53:26.168Z,4.07
2022-12-12T19:57:29.234Z,4.03
2022-12-12T20:01:33.601Z,3.43
2022-12-12T20:05:36.705Z,4.10
2022-12-12T20:09:41.243Z,3.80
2022-12-12T20:13:48.739Z,4.10
2022-12-12T20:17:51.866Z,4.17
2022-12-12T20:22:01.786Z,4.30
2022-12-12T20:26:08.511Z,3.70
2022-12-12T20:30:13.666Z,3.73
2022-12-12T20:34:19.188Z,4.20
2022-12-12T20:38:25.172Z,4.30
2022-12-12T20:42:30.879Z,4.40
2022-12-12T20:46:35.904Z,4.33
2022-12-12T20:50:39.443Z,4.23
2022-12-12T20:54:42.451Z,3.90
2022-12-12T20:58:47.900Z,4.20
2022-12-12T21:02:51.317Z,3.97
2022-12-12T21:06:56.810Z,4.30
2022-12-12T21:11:02.821Z,3.87
2022-12-12T21:15:10.396Z,4.30
2022-12-12T21:19:16.261Z,4.50
2022-12-12T21:23:21.502Z,4.10
2022-12-12T21:27:25.610Z,4.10
2022-12-12T21:31:32.862Z,3.60
2022-12-12T21:35:36.358Z,4.10
2022-12-12T21:39:42.244Z,3.90
2022-12-12T21:43:45.766Z,3.83
2022-12-12T21:47:50.209Z,3.47
2022-12-12T21:51:53.909Z,3.40
2022-12-12T21:56:02.965Z,3.73
2022-12-12T22:00:07.104Z,4.17
2022-12-12T22:04:16.867Z,3.60
2022-12-12T22:08:19.959Z,3.77
2022-12-12T22:12:23.341Z,3.60
2022-12-12T22:16:26.497Z,3.17
2022-12-12T22:20:30.973Z,3.40
2022-12-12T22:24:34.310Z,3.40
2022-12-12T22:28:37.351Z,3.10
2022-12-12T22:32:40.448Z,3.77
2022-12-12T22:36:48.447Z,3.53
2022-12-12T22:40:55.151Z,3.33
2022-12-12T22:44:58.329Z,3.00
2022-12-12T22:49:02.725Z,2.77
2022-12-12T22:53:07.179Z,2.80
2022-12-12T22:57:10.200Z,2.80
2022-12-12T23:01:15.263Z,3.23
2022-12-12T23:05:19.192Z,2.93
2022-12-12T23:09:26.930Z,2.60
2022-12-12T23:13:30.161Z,3.07
2022-12-12T23:17:33.691Z,2.57
2022-12-12T23:21:38.177Z,3.03
2022-12-12T23:25:42.568Z,2.70
2022-12-12T23:29:45.918Z,2.83
2022-12-12T23:33:49.519Z,3.10
2022-12-12T23:37:52.699Z,2.60
2022-12-12T23:41:57.113Z,2.87
2022-12-12T23:46:02.327Z,2.70
2022-12-12T23:50:06.094Z,2.63
2022-12-12T23:54:11.853Z,2.60
2022-12-12T23:58:16.555Z,2.57
